Arcola, Missouri
Current Conditions -  °F | °C
As of 9:52 AM on Monday 22 Dec 2014 (Local Time) from KSGF Reporting Station
Moderate Rain Moderate Rain  
Wind Chill: 39°   Ceiling: 600
Heat Index: 44°   Visibility: 4mi
Dew Point: 42°   Wind: 10mph
Humidity: 93%   Direction: 150°SSE
Pressure: 29.62"   Gusts: NA
Location:  37.55°N, 93.88°W
Report Text: KSGF 221552Z 15009KT 4SM RA BR BKN006 OVC022 07/06 A2962 RMK AO2 SLP033 P0004 T00670056
Loading
Personal Weather Stations






























Interactive Weather Map New forecast layout! Learn more

10-Day Weather Forecast

Advertisements
Track Severe Weather on mobile